• Join FlightAware (Why Join?)
  • Login
  • US Flag 
12:49PM EDT


 

Airport Tracker/Info


-or-


 

Live Flight TrackerFlight Track Log ✈ NKS216 ✈ 28-Dec-2013 ✈ KLAX - KIAH

Flight Track Log - Related Links

Times and Time Zones

All times are in EST time to prevent confusion due to time zone crossing. See the NKS216 flight status page for this flight to view local times or setup timezone preferences in your user account.

Time Position Orientation Groundspeed Altitude Reporting Facility
EST Latitude Longitude Course Direction KTS MPH feet Rate Location/Type
08:18PM 33.9472 -118.4313 262° West 166 191 800  Level FlightAware ADS-B
08:18PM 33.9444 -118.4595 263° West 181 208 1,300 1,320 Climbing FlightAware ADS-B
08:19PM 33.8959 -118.4953 211° Southwest 258 297 2,900 2,160 Climbing FlightAware ADS-B
08:20PM 33.8475 -118.5020 187° South 279 321 5,000 3,300 Climbing FlightAware ADS-B
08:20PM 33.8142 -118.5056 185° South 287 330 6,300 3,480 Climbing FlightAware ADS-B
08:21PM 33.7649 -118.5120 186° South 295 339 8,600 2,880 Climbing FlightAware ADS-B
08:23PM 33.6510 -118.3646 133° Southeast 376 433 14,100 2,400 Climbing FlightAware ADS-B
08:24PM 33.6448 -118.2446 94° East 381 438 15,800 2,040 Climbing FlightAware ADS-B
08:25PM 33.6449 -118.1598 90° East 392 451 17,400 2,340 Climbing FlightAware ADS-B
08:25PM 33.6374 -118.0718 96° East 407 468 18,900 2,340 Climbing FlightAware ADS-B
08:26PM 33.6286 -117.9878 97° East 408 470 20,500 2,340 Climbing FlightAware ADS-B
08:27PM 33.6190 -117.8965 97° East 412 474 22,000 1,920 Climbing FlightAware ADS-B
08:27PM 33.6099 -117.8101 97° East 425 489 23,000 1,560 Climbing FlightAware ADS-B
08:29PM 33.5907 -117.6320 97° East 441 507 25,000 1,680 Climbing FlightAware ADS-B
08:29PM 33.5799 -117.5331 97° East 443 510 26,300 1,560 Climbing FlightAware ADS-B
08:30PM 33.5694 -117.4368 97° East 452 520 27,200 1,200 Climbing FlightAware ADS-B
08:31PM 33.5578 -117.3323 98° East 462 532 28,000 1,320 Climbing FlightAware ADS-B
08:31PM 33.5469 -117.2343 98° East 470 541 28,900 1,140 Climbing FlightAware ADS-B
08:32PM 33.5362 -117.1388 98° East 481 554 29,500 1,020 Climbing FlightAware ADS-B
08:33PM 33.5224 -117.0170 98° East 489 563 30,300 1,500 Climbing FlightAware ADS-B
08:33PM 33.5106 -116.9131 98° East 479 551 31,600 1,800 Climbing FlightAware ADS-B
08:34PM 33.4977 -116.8010 98° East 476 548 32,800 1,260 Climbing FlightAware ADS-B
08:35PM 33.4860 -116.6993 98° East 483 556 33,400 1,020 Climbing FlightAware ADS-B
08:35PM 33.4757 -116.6126 98° East 485 558 34,100 1,200 Climbing FlightAware ADS-B
08:36PM 33.4592 -116.4721 98° East 487 560 35,200 1,080 Climbing FlightAware ADS-B
08:37PM 33.4445 -116.3470 98° East 488 562 36,500 660 Climbing FlightAware ADS-B
08:39PM 33.4095 -116.0543 98° East 489 563 37,000 120 Climbing FlightAware ADS-B (KVGT)
08:41PM 33.3697 -115.7338 98° East 484 557 37,000  Level FlightAware ADS-B (KVGT)
08:42PM 33.3492 -115.5694 98° East 487 560 37,000  Level FlightAware ADS-B (KVGT)
08:43PM 33.3289 -115.4074 98° East 490 564 37,000  Level FlightAware ADS-B (KVGT)
08:43PM 33.3133 -115.2851 99° East 491 565 37,000  Level FlightAware ADS-B (KVGT)
08:46PM 33.2638 -114.9027 99° East 491 565 37,000 -60 Level FlightAware ADS-B (KVGT)
08:47PM 33.2461 -114.7444 99° East 490 564 36,900  Descending Albuquerque Center
08:48PM 33.2236 -114.5839 99° East 490 564 37,000  Climbing Albuquerque Center
08:49PM 33.2011 -114.4236 99° East 490 564 37,000 -60 Level Albuquerque Center
08:50PM 33.1803 -114.2658 99° East 485 558 36,900 -60 Descending Albuquerque Center
08:51PM 33.1542 -114.0747 99° East 485 558 36,900  Level Albuquerque Center
08:52PM 33.1308 -113.9158 100° East 487 560 36,900  Level Albuquerque Center
08:53PM 33.1097 -113.7561 99° East 487 560 36,900  Level Albuquerque Center
08:54PM 33.0864 -113.5967 100° East 487 560 37,000  Climbing Albuquerque Center
08:55PM 33.0636 -113.4375 100° East 486 559 37,000 -60 Level Albuquerque Center
08:56PM 33.0411 -113.2806 100° East 482 555 36,900 -60 Descending Albuquerque Center
08:57PM 33.0183 -113.1233 100° East 479 551 36,900  Level Albuquerque Center
08:58PM 32.9944 -112.9661 100° East 479 551 36,900  Level Albuquerque Center
08:59PM 32.9706 -112.8086 100° East 480 552 36,900  Level Albuquerque Center
09:05PM 32.8328 -111.9052 100° East 482 555 37,000  Climbing FlightAware ADS-B (KDMA)
09:06PM 32.8135 -111.7828 101° East 483 556 37,000  Level FlightAware ADS-B (KDMA)
09:06PM 32.7990 -111.6918 101° East 482 555 37,000  Level FlightAware ADS-B (KDMA)
09:07PM 32.7829 -111.5909 101° East 484 557 37,000  Level FlightAware ADS-B (KDMA)
09:08PM 32.7638 -111.4712 101° East 484 557 37,000  Level FlightAware ADS-B (KDMA)
09:08PM 32.7489 -111.3774 101° East 486 559 37,000  Level FlightAware ADS-B (KDMA)
09:09PM 32.7299 -111.2597 101° East 488 562 37,000  Level FlightAware ADS-B (KDMA)
09:10PM 32.7135 -111.1588 101° East 490 564 37,000  Level FlightAware ADS-B (KDMA)
09:11PM 32.6875 -111.0011 101° East 494 568 37,000  Level FlightAware ADS-B (KDMA)
09:12PM 32.6624 -110.8480 101° East 496 571 37,000  Level FlightAware ADS-B (KDMA)
09:12PM 32.6425 -110.7283 101° East 497 572 37,000  Level FlightAware ADS-B (KDMA)
09:13PM 32.6264 -110.6321 101° East 499 574 37,000  Level FlightAware ADS-B (KDMA)
09:14PM 32.6125 -110.5141 98° East 500 575 37,000  Level FlightAware ADS-B (KDMA)
09:14PM 32.6049 -110.4268 96° East 499 574 37,000  Level FlightAware ADS-B (KDMA)
09:15PM 32.5856 -110.2467 97° East 497 572 37,000  Level FlightAware ADS-B (KDMA)
09:16PM 32.5754 -110.1544 97° East 496 571 37,000  Level FlightAware ADS-B (KDMA)
09:16PM 32.5643 -110.0554 98° East 497 572 37,000  Level FlightAware ADS-B (KDMA)
09:17PM 32.5499 -109.9233 97° East 497 572 37,000  Level FlightAware ADS-B (KDMA)
09:19PM 32.5259 -109.7084 97° East 501 577 37,000  Level FlightAware ADS-B (KDMA)
09:19PM 32.5187 -109.6441 98° East 500 575 37,000  Level FlightAware ADS-B (KDMA)
09:20PM 32.5056 -109.5417 98° East 506 582 37,000  Level Albuquerque Center
09:21PM 32.4881 -109.3800 97° East 503 579 37,000  Level Albuquerque Center
09:22PM 32.4689 -109.2181 98° East 502 578 37,000  Level Albuquerque Center
09:23PM 32.4500 -109.0561 98° East 502 578 37,000  Level Albuquerque Center
09:24PM 32.4272 -108.8614 98° East 502 578 37,000  Level Albuquerque Center
09:25PM 32.4081 -108.7011 98° East 499 574 37,000  Level Albuquerque Center
09:26PM 32.3872 -108.5419 99° East 495 570 37,000 -60 Level Albuquerque Center
09:27PM 32.3681 -108.3844 98° East 496 571 36,900 -60 Descending Albuquerque Center
09:28PM 32.3478 -108.2228 98° East 499 574 36,900  Level Albuquerque Center
09:29PM 32.3272 -108.0597 98° East 502 578 37,000  Climbing Albuquerque Center
09:30PM 32.3064 -107.8981 99° East 502 578 37,000  Level Albuquerque Center
09:31PM 32.2819 -107.7028 98° East 504 580 37,000 -60 Level Albuquerque Center
09:32PM 32.2611 -107.5411 99° East 503 579 36,900  Descending Albuquerque Center
09:33PM 32.2397 -107.3747 99° East 503 579 37,000  Climbing Albuquerque Center
09:34PM 32.2178 -107.2131 99° East 501 577 37,000  Level Albuquerque Center
09:35PM 32.1961 -107.0378 98° East 504 580 37,000  Level Albuquerque Center
09:36PM 32.1736 -106.8742 99° East 504 580 37,000  Level Albuquerque Center
09:37PM 32.1511 -106.7050 99° East 501 577 37,000 -60 Level Albuquerque Center
09:38PM 32.1275 -106.5428 100° East 504 580 36,900 -60 Descending Albuquerque Center
09:39PM 32.1050 -106.3803 99° East 504 580 36,900  Level Albuquerque Center
09:40PM 32.0817 -106.2181 100° East 504 580 37,000  Climbing Albuquerque Center
09:41PM 32.0586 -106.0558 99° East 504 580 37,000 -60 Level Albuquerque Center
09:42PM 32.0317 -105.8753 100° East 504 580 36,900 -60 Descending Albuquerque Center
09:43PM 32.0081 -105.7117 100° East 506 582 36,900  Level Albuquerque Center
09:44PM 31.9847 -105.5481 100° East 506 582 36,900  Level Albuquerque Center
09:45PM 31.9603 -105.3856 100° East 504 580 37,000  Climbing Albuquerque Center
09:46PM 31.9361 -105.2261 100° East 498 573 37,000 -60 Level Albuquerque Center
09:47PM 31.9122 -105.0664 100° East 496 571 36,900 -60 Descending Albuquerque Center
09:48PM 31.8886 -104.9039 100° East 497 572 36,900  Level Albuquerque Center
09:49PM 31.8636 -104.7431 100° East 499 574 36,900  Level Albuquerque Center
09:50PM 31.8392 -104.5842 100° East 497 572 37,000  Climbing Albuquerque Center
09:51PM 31.8142 -104.4244 100° East 496 571 36,900  Descending Albuquerque Center
09:52PM 31.7900 -104.2644 100° East 496 571 37,000  Climbing Albuquerque Center
09:53PM 31.7639 -104.1039 101° East 497 572 37,000  Level Albuquerque Center
09:54PM 31.7386 -103.9417 100° East 500 575 37,000  Level Albuquerque Center
09:55PM 31.7097 -103.7558 100° East 500 575 37,000  Level Albuquerque Center
09:56PM 31.6822 -103.5958 101° East 502 578 37,000 -60 Level Albuquerque Center
09:57PM 31.6553 -103.4317 101° East 502 578 36,900  Descending Albuquerque Center
09:59PM 31.6283 -103.2708 101° East 503 579 37,000  Climbing Albuquerque Center
10:00PM 31.6014 -103.1114 101° East 501 577 37,000 -60 Level Albuquerque Center
10:01PM 31.5736 -102.9508 101° East 502 578 36,900  Descending Albuquerque Center
10:02PM 31.5400 -102.7578 101° East 503 579 37,000  Climbing Albuquerque Center
10:03PM 31.5131 -102.5967 101° East 503 579 37,000  Level Albuquerque Center
10:04PM 31.4817 -102.4133 101° East 516 594 37,000  Level Albuquerque Center
10:05PM 31.4536 -102.2544 102° East 507 583 37,000  Level Albuquerque Center
10:06PM 31.4247 -102.0958 102° East 503 579 37,000 -60 Level Albuquerque Center
10:07PM 31.4006 -101.9461 101° East 501 577 36,900 -60 Descending Houston Center
10:08PM 31.3725 -101.7867 102° East 499 574 36,900  Level Houston Center
10:09PM 31.3425 -101.6267 102° East 502 578 36,900  Level Houston Center
10:10PM 31.3139 -101.4667 102° East 503 579 37,000  Climbing Houston Center
10:11PM 31.2786 -101.2739 102° East 506 582 37,000  Level Houston Center
10:12PM 31.2494 -101.1133 102° East 506 582 37,000  Level Houston Center
10:13PM 31.2225 -100.9694 102° East 504 580 37,000 -60 Level Houston Center
10:14PM 31.1931 -100.8114 102° East 499 574 36,900 -60 Descending Houston Center
10:15PM 31.1642 -100.6522 102° East 501 577 36,900  Level Houston Center
10:16PM 31.1331 -100.4947 103° East 498 573 36,900  Level Houston Center
10:17PM 31.1028 -100.3353 102° East 502 578 36,900  Level Houston Center
10:18PM 31.0664 -100.1433 102° East 505 581 36,900  Level Houston Center
10:19PM 31.0358 -99.9800 102° East 512 589 37,000  Climbing Houston Center
10:24PM 30.9741 -99.1222 102° East 499 574 37,000  Level FlightAware ADS-B
10:28PM 30.9494 -98.5392 93° East 513 590 37,000  Level FlightAware ADS-B
10:29PM 30.9453 -98.4469 93° East 515 593 37,000 60 Level FlightAware ADS-B
10:29PM 30.9409 -98.3556 93° East 512 589 37,100 60 Climbing FlightAware ADS-B
10:30PM 30.9369 -98.2726 93° East 507 583 37,100 -120 Level FlightAware ADS-B
10:30PM 30.9321 -98.1761 93° East 503 579 37,000 -120 Descending FlightAware ADS-B
10:31PM 30.9283 -98.0952 93° East 500 575 37,000  Level FlightAware ADS-B
10:31PM 30.9244 -98.0113 93° East 498 573 37,000  Level FlightAware ADS-B
10:32PM 30.9205 -97.9301 93° East 495 570 37,000 -120 Level FlightAware ADS-B
10:32PM 30.9164 -97.8495 93° East 495 570 36,900  Descending FlightAware ADS-B
10:32PM 30.9150 -97.8232 93° East 493 567 37,000 420 Climbing FlightAware ADS-B (KGTU)
10:32PM 30.9171 -97.8624 273° West 494 568 37,000  Level FlightAware ADS-B
10:33PM 30.9117 -97.7570 93° East 495 570 37,000  Level FlightAware ADS-B
10:33PM 30.9110 -97.7434 93° East 495 570 37,000 -540 Level FlightAware ADS-B
10:33PM 30.9102 -97.7248 93° East 495 570 36,900 -1,200 Descending FlightAware ADS-B (KGTU)
10:33PM 30.9071 -97.6654 93° East 497 572 36,400 -1,440 Descending FlightAware ADS-B
10:33PM 30.9068 -97.6598 94° East 497 572 36,300 -1,800 Descending FlightAware ADS-B
10:34PM 30.9044 -97.6123 93° East 497 572 35,800 -1,980 Descending FlightAware ADS-B (KGTU)
10:34PM 30.9029 -97.5835 93° East 502 578 35,400 -2,160 Descending FlightAware ADS-B
10:34PM 30.9024 -97.5734 93° East 503 579 35,300 -2,040 Descending FlightAware ADS-B
10:34PM 30.9021 -97.5677 93° East 503 579 35,200 -2,040 Descending FlightAware ADS-B
10:34PM 30.8997 -97.5246 94° East 509 586 34,700 -1,920 Descending FlightAware ADS-B
10:34PM 30.8989 -97.5167 97° East 509 586 34,600 -1,800 Descending FlightAware ADS-B (KGTU)
10:34PM 30.8960 -97.4961 99° East 511 588 34,400 -1,680 Descending FlightAware ADS-B
10:34PM 30.8942 -97.4866 102° East 512 589 34,300 -1,020 Descending FlightAware ADS-B
10:35PM 30.8893 -97.4662 106° East 509 586 34,200 -600 Descending FlightAware ADS-B
10:35PM 30.8883 -97.4622 106° East 510 587 34,200 -1,020 Level FlightAware ADS-B
10:35PM 30.8849 -97.4500 108° East 507 583 34,100 -840 Descending FlightAware ADS-B (KGTU)
10:35PM 30.8676 -97.3860 108° East 504 580 33,800 -720 Descending FlightAware ADS-B
10:35PM 30.8663 -97.3811 107° East 504 580 33,800 -600 Level FlightAware ADS-B
10:35PM 30.8602 -97.3584 107° East 500 575 33,700 -1,500 Descending FlightAware ADS-B (KGTU)
10:36PM 30.8469 -97.3083 107° East 499 574 33,100 -2,340 Descending FlightAware ADS-B
10:36PM 30.8398 -97.2822 108° East 505 581 32,500 -3,180 Descending FlightAware ADS-B
10:36PM 30.8353 -97.2656 108° East 503 579 32,200 -3,180 Descending FlightAware ADS-B (KGTU)
10:36PM 30.8257 -97.2302 108° East 505 581 31,500 -2,400 Descending FlightAware ADS-B
10:36PM 30.8183 -97.2027 107° East 502 578 31,200 -1,980 Descending FlightAware ADS-B
10:37PM 30.8052 -97.1520 107° East 495 570 30,500 -2,100 Descending FlightAware ADS-B
10:37PM 30.7984 -97.1258 107° East 492 566 30,200 -1,980 Descending FlightAware ADS-B
10:37PM 30.7849 -97.0742 107° East 484 557 29,500 -2,160 Descending FlightAware ADS-B
10:37PM 30.7802 -97.0564 107° East 478 550 29,200 -1,920 Descending FlightAware ADS-B (KGTU)
10:37PM 30.7721 -97.0264 107° East 477 549 28,900 -1,860 Descending FlightAware ADS-B
10:38PM 30.7651 -97.0010 108° East 472 543 28,500 -2,040 Descending FlightAware ADS-B
10:38PM 30.7528 -96.9559 108° East 467 537 27,900 -1,800 Descending FlightAware ADS-B
10:38PM 30.7455 -96.9287 107° East 463 533 27,600 -1,800 Descending FlightAware ADS-B
10:39PM 30.7276 -96.8622 107° East 451 519 26,700 -1,980 Descending FlightAware ADS-B
10:39PM 30.7256 -96.8547 107° East 450 518 26,600 -1,860 Descending FlightAware ADS-B
10:39PM 30.7063 -96.7835 107° East 439 505 25,700 -1,740 Descending FlightAware ADS-B
10:39PM 30.7024 -96.7691 108° East 438 504 25,500 -2,040 Descending FlightAware ADS-B
10:40PM 30.6885 -96.7180 108° East 432 497 24,700 -1,980 Descending FlightAware ADS-B
10:40PM 30.6787 -96.6817 107° East 428 493 24,200 -1,800 Descending FlightAware ADS-B
10:40PM 30.6701 -96.6492 107° East 424 488 23,800 -1,860 Descending FlightAware ADS-B
10:41PM 30.6555 -96.5957 108° East 417 480 23,000 -1,920 Descending FlightAware ADS-B
10:41PM 30.6514 -96.5808 108° East 416 479 22,800 -1,800 Descending FlightAware ADS-B
10:41PM 30.6338 -96.5169 108° East 407 468 21,900 -1,800 Descending FlightAware ADS-B
10:41PM 30.6324 -96.5117 108° East 407 468 21,800 -1,800 Descending FlightAware ADS-B
10:42PM 30.6166 -96.4543 108° East 401 461 21,000 -1,680 Descending FlightAware ADS-B
10:42PM 30.6096 -96.4286 108° East 399 459 20,700 -1,800 Descending FlightAware ADS-B
10:42PM 30.5997 -96.3924 108° East 396 456 20,100 -1,860 Descending FlightAware ADS-B
10:43PM 30.5882 -96.3495 107° East 393 452 19,500 -1,800 Descending FlightAware ADS-B
10:43PM 30.5833 -96.3316 108° East 391 450 19,200 -2,040 Descending FlightAware ADS-B
10:43PM 30.5665 -96.2716 108° East 390 449 18,200 -2,100 Descending FlightAware ADS-B
10:43PM 30.5658 -96.2688 106° East 391 450 18,100 -1,800 Descending FlightAware ADS-B
10:44PM 30.5500 -96.2121 108° East 386 444 17,300 -1,800 Descending FlightAware ADS-B
10:44PM 30.5492 -96.2091 107° East 387 445 17,200 -1,800 Descending FlightAware ADS-B
10:44PM 30.5335 -96.1526 108° East 381 438 16,400 -1,800 Descending FlightAware ADS-B
10:44PM 30.5333 -96.1515 105° East 382 440 16,300 -1,800 Descending FlightAware ADS-B
10:45PM 30.5173 -96.0941 108° East 374 430 15,500 -1,800 Descending FlightAware ADS-B
10:45PM 30.5167 -96.0920 109° East 375 432 15,400 -1,740 Descending FlightAware ADS-B
10:45PM 30.5016 -96.0367 108° East 368 423 14,600 -1,740 Descending FlightAware ADS-B
10:46PM 30.4862 -95.9803 108° East 360 414 13,700 -1,800 Descending FlightAware ADS-B
10:46PM 30.4708 -95.9249 108° East 353 406 12,800 -1,680 Descending FlightAware ADS-B
10:46PM 30.4661 -95.9083 108° East 352 405 12,600 -1,500 Descending FlightAware ADS-B
10:47PM 30.4585 -95.8814 108° East 347 399 12,200 -1,740 Descending FlightAware ADS-B
10:47PM 30.4549 -95.8710 112° Southeast 346 398 12,000 -1,680 Descending FlightAware ADS-B
10:47PM 30.4519 -95.8645 118° Southeast 342 394 11,900 -720 Descending FlightAware ADS-B
10:47PM 30.4476 -95.8574 125° Southeast 339 390 11,900  Level FlightAware ADS-B
10:47PM 30.4466 -95.8561 132° Southeast 336 387 11,900  Level FlightAware ADS-B
10:47PM 30.4425 -95.8509 132° Southeast 331 381 11,900  Level FlightAware ADS-B
10:47PM 30.4370 -95.8453 138° Southeast 323 372 11,900  Level FlightAware ADS-B
10:47PM 30.4132 -95.8210 139° Southeast 309 356 11,900 -180 Level FlightAware ADS-B
10:48PM 30.3937 -95.8003 138° Southeast 307 353 11,800 -420 Descending FlightAware ADS-B
10:48PM 30.3820 -95.7879 137° Southeast 304 350 11,700 -1,260 Descending FlightAware ADS-B
10:48PM 30.3526 -95.7568 138° Southeast 300 345 11,000 -1,380 Descending FlightAware ADS-B
10:48PM 30.3508 -95.7550 139° Southeast 299 344 11,000 -1,200 Level FlightAware ADS-B
10:49PM 30.3221 -95.7248 138° Southeast 293 337 10,400 -1,440 Descending FlightAware ADS-B
10:49PM 30.3202 -95.7227 136° Southeast 292 336 10,300 -1,440 Descending FlightAware ADS-B
10:49PM 30.3057 -95.7076 138° Southeast 292 336 10,000 -1,500 Descending FlightAware ADS-B
10:49PM 30.3044 -95.7062 137° Southeast 290 334 9,900 -1,800 Descending FlightAware ADS-B
10:50PM 30.2893 -95.6903 138° Southeast 290 334 9,500 -1,440 Descending FlightAware ADS-B
10:50PM 30.2872 -95.6882 138° Southeast 290 334 9,500 -1,800 Level FlightAware ADS-B
10:50PM 30.2718 -95.6721 138° Southeast 290 334 9,000 -1,800 Descending FlightAware ADS-B
10:50PM 30.2707 -95.6709 137° Southeast 290 334 9,000 -1,620 Level FlightAware ADS-B
10:50PM 30.2566 -95.6563 138° Southeast 290 334 8,600 -1,680 Descending FlightAware ADS-B
10:50PM 30.2522 -95.6516 138° Southeast 290 334 8,500 -1,500 Descending FlightAware ADS-B
10:50PM 30.2406 -95.6394 138° Southeast 287 330 8,200 -1,680 Descending FlightAware ADS-B
10:50PM 30.2347 -95.6332 138° Southeast 288 331 8,000 -1,620 Descending FlightAware ADS-B
10:51PM 30.2257 -95.6238 138° Southeast 288 331 7,800 -1,620 Descending FlightAware ADS-B
10:51PM 30.2164 -95.6142 138° Southeast 288 331 7,500 -1,620 Descending FlightAware ADS-B
10:51PM 30.2108 -95.6085 139° Southeast 287 330 7,400 -1,800 Descending FlightAware ADS-B
10:51PM 30.2002 -95.5977 139° Southeast 288 331 7,000 -1,680 Descending FlightAware ADS-B
10:51PM 30.1928 -95.5901 139° Southeast 286 329 6,900 -1,620 Descending FlightAware ADS-B
10:51PM 30.1814 -95.5782 138° Southeast 289 333 6,500 -1,920 Descending FlightAware ADS-B
10:51PM 30.1774 -95.5741 138° Southeast 288 331 6,400 -1,080 Descending FlightAware ADS-B
10:52PM 30.1638 -95.5599 138° Southeast 283 326 6,200 -780 Descending FlightAware ADS-B
10:52PM 30.1617 -95.5578 139° Southeast 282 325 6,200 -1,020 Level FlightAware ADS-B
10:52PM 30.1466 -95.5420 138° Southeast 274 315 5,900 -600 Descending FlightAware ADS-B
10:52PM 30.1323 -95.5270 138° Southeast 277 319 5,900  Level FlightAware ADS-B
10:52PM 30.1271 -95.5216 138° Southeast 278 320 5,900  Level FlightAware ADS-B
10:52PM 30.1172 -95.5110 137° Southeast 278 320 5,900  Level FlightAware ADS-B
10:52PM 30.1142 -95.5072 132° Southeast 279 321 5,900  Level FlightAware ADS-B
10:53PM 30.1135 -95.5061 126° Southeast 280 322 5,900  Level FlightAware ADS-B
10:53PM 30.1093 -95.4980 121° Southeast 280 322 5,900  Level FlightAware ADS-B
10:53PM 30.1070 -95.4908 110° East 281 323 5,900  Level FlightAware ADS-B
10:53PM 30.1067 -95.4892 102° East 281 323 5,900  Level FlightAware ADS-B
10:53PM 30.1059 -95.4815 97° East 281 323 5,900  Level FlightAware ADS-B
10:53PM 30.1058 -95.4778 91° East 280 322 5,900  Level FlightAware ADS-B
10:53PM 30.1060 -95.4716 88° East 280 322 5,900  Level FlightAware ADS-B
10:53PM 30.1068 -95.4410 88° East 277 319 5,900 -180 Level FlightAware ADS-B
10:54PM 30.1068 -95.4194 90° East 264 304 5,800 -360 Descending FlightAware ADS-B
10:54PM 30.1067 -95.4165 92° East 264 304 5,800 -420 Level FlightAware ADS-B
10:54PM 30.1066 -95.3982 90° East 257 296 5,700 -720 Descending FlightAware ADS-B
10:54PM 30.1065 -95.3928 91° East 255 293 5,600 -480 Descending FlightAware ADS-B
10:54PM 30.1064 -95.3803 91° East 249 287 5,600 -720 Level FlightAware ADS-B
10:54PM 30.1063 -95.3672 90° East 245 282 5,400 -780 Descending FlightAware ADS-B
10:54PM 30.1063 -95.3599 90° East 243 280 5,400 -720 Level FlightAware ADS-B
10:54PM 30.1063 -95.3446 90° East 238 274 5,200 -840 Descending FlightAware ADS-B
10:55PM 30.1063 -95.3405 89° East 236 272 5,200 -420 Level FlightAware ADS-B
10:55PM 30.1063 -95.3262 90° East 232 267 5,100 -900 Descending FlightAware ADS-B
10:55PM 30.1063 -95.3237 90° East 232 267 5,000 -1,140 Descending FlightAware ADS-B
10:55PM 30.1063 -95.3066 90° East 227 261 4,800 -720 Descending FlightAware ADS-B
10:55PM 30.1063 -95.3016 90° East 227 261 4,800 -840 Level FlightAware ADS-B
10:55PM 30.1063 -95.2882 90° East 225 259 4,600 -1,320 Descending FlightAware ADS-B
10:55PM 30.1063 -95.2795 90° East 227 261 4,400 -1,500 Descending FlightAware ADS-B
10:55PM 30.1063 -95.2694 90° East 229 264 4,200 -1,680 Descending FlightAware ADS-B
10:56PM 30.1063 -95.2565 90° East 232 267 3,900 -1,200 Descending FlightAware ADS-B
10:56PM 30.1064 -95.2504 89° East 231 266 3,900 -1,020 Level FlightAware ADS-B
10:56PM 30.1064 -95.2348 90° East 231 266 3,600 -1,320 Descending FlightAware ADS-B
10:56PM 30.1064 -95.2340 86° East 232 267 3,600 -1,020 Level FlightAware ADS-B
10:56PM 30.1065 -95.2117 90° East 230 265 3,300 -1,140 Descending FlightAware ADS-B
10:57PM 30.1065 -95.1930 90° East 229 264 3,000 -1,320 Descending FlightAware ADS-B
10:57PM 30.1063 -95.1893 94° East 229 264 2,900 -1,740 Descending FlightAware ADS-B
10:57PM 30.1058 -95.1847 97° East 229 264 2,800 -1,020 Descending FlightAware ADS-B
10:57PM 30.1053 -95.1828 106° East 229 264 2,800 -1,500 Level FlightAware ADS-B
10:57PM 30.1045 -95.1799 108° East 228 262 2,700 -1,020 Descending FlightAware ADS-B
10:57PM 30.1026 -95.1753 116° Southeast 226 260 2,700 -780 Level FlightAware ADS-B
10:57PM 30.1004 -95.1715 124° Southeast 224 258 2,600 -1,200 Descending FlightAware ADS-B
10:57PM 30.1010 -95.1725 306° West 225 259 2,600  Level FlightAware ADS-B
10:57PM 30.0977 -95.1684 133° Southeast 221 254 2,600 -1,020 Level FlightAware ADS-B
10:57PM 30.0949 -95.1658 141° Southeast 218 251 2,500 -900 Descending FlightAware ADS-B
10:57PM 30.0912 -95.1635 152° Southeast 214 246 2,500  Level FlightAware ADS-B
10:57PM 30.0908 -95.1632 153° Southeast 214 246 2,500 -1,500 Level FlightAware ADS-B
10:57PM 30.0882 -95.1623 162° South 211 243 2,400 -1,200 Descending FlightAware ADS-B
10:57PM 30.0847 -95.1615 169° South 207 238 2,400  Level FlightAware ADS-B
10:57PM 30.0837 -95.1613 170° South 208 239 2,400  Level FlightAware ADS-B
10:57PM 30.0815 -95.1612 178° South 205 236 2,400  Level FlightAware ADS-B
10:57PM 30.0784 -95.1613 182° South 203 234 2,400 -960 Level FlightAware ADS-B
10:58PM 30.0637 -95.1621 183° South 198 228 2,100 -900 Descending FlightAware ADS-B
10:58PM 30.0611 -95.1623 183° South 199 229 2,100 -840 Level FlightAware ADS-B
10:58PM 30.0497 -95.1629 183° South 198 228 1,900 -1,080 Descending FlightAware ADS-B
10:58PM 30.0453 -95.1631 182° South 200 230 1,800 -1,800 Descending FlightAware ADS-B
10:58PM 30.0405 -95.1633 182° South 199 229 1,600 -1,200 Descending FlightAware ADS-B
10:58PM 30.0352 -95.1636 183° South 199 229 1,600 -840 Level FlightAware ADS-B
10:58PM 30.0275 -95.1639 182° South 200 230 1,400 -1,200 Descending FlightAware ADS-B
10:58PM 30.0230 -95.1641 183° South 196 226 1,400  Level FlightAware ADS-B
10:59PM 30.0027 -95.1685 191° South 199 229 1,400  Level FlightAware ADS-B
10:59PM 29.9996 -95.1697 199° South 200 230 1,400  Level FlightAware ADS-B
10:59PM 29.9940 -95.1725 203° Southwest 200 230 1,400  Level FlightAware ADS-B
10:59PM 29.9905 -95.1749 211° Southwest 200 230 1,400  Level FlightAware ADS-B
10:59PM 29.9876 -95.1774 217° Southwest 200 230 1,400  Level FlightAware ADS-B
10:59PM 29.9843 -95.1815 227° Southwest 201 231 1,400  Level FlightAware ADS-B
10:59PM 29.9848 -95.1808 48° Northeast 201 231 1,400  Level FlightAware ADS-B
10:59PM 29.9829 -95.1836 232° Southwest 200 230 1,400 960 Level FlightAware ADS-B
10:59PM 29.9815 -95.1864 240° Southwest 201 231 1,500  Climbing FlightAware ADS-B
10:59PM 29.9794 -95.1917 245° Southwest 201 231 1,400  Descending FlightAware ADS-B
10:59PM 29.9779 -95.2011 260° West 202 232 1,500  Climbing FlightAware ADS-B
10:59PM 29.9779 -95.2035 269° West 202 232 1,400 -300 Descending FlightAware ADS-B
11:00PM 29.9788 -95.2216 273° West 191 220 1,400 -300 Level FlightAware ADS-B
11:00PM 29.9787 -95.2245 268° West 189 217 1,300 -420 Descending FlightAware ADS-B
11:00PM 29.9780 -95.2369 266° West 177 204 1,300 -300 Level FlightAware ADS-B
11:00PM 29.9778 -95.2447 268° West 167 192 1,200 -1,200 Descending FlightAware ADS-B
11:00PM 29.9778 -95.2539 270° West 159 183 900 -1,380 Descending FlightAware ADS-B
11:00PM 29.9777 -95.2628 269° West 149 171 700 -1,140 Descending FlightAware ADS-B
11:01PM 29.9777 -95.2717 270° West 142 163 500 -960 Descending FlightAware ADS-B
11:01PM 29.9777 -95.2774 270° West 134 154 400 -840 Descending FlightAware ADS-B
11:01PM 29.9777 -95.2881 270° West 129 148 200 -660 Descending FlightAware ADS-B
11:01PM 29.9777 -95.2973 270° West 127 146 100 -480 Descending FlightAware ADS-B
11:02PM 29.9776 -95.3219 270° West 78 90 -180 Descending FlightAware ADS-B